createdAt,value
2022-12-04T00:00:06.056Z,99879.36
2022-12-04T00:00:15.997Z,99882.34
2022-12-04T00:00:25.970Z,99881.20
2022-12-04T00:00:36.104Z,99881.48
2022-12-04T00:00:46.013Z,99881.53
2022-12-04T00:00:56.021Z,99883.44
2022-12-04T00:01:06.073Z,99881.11
2022-12-04T00:01:16.045Z,99877.25
2022-12-04T00:01:26.043Z,99877.41
2022-12-04T00:01:36.071Z,99877.58
2022-12-04T00:01:45.982Z,99880.42
2022-12-04T00:01:56.027Z,99880.79
2022-12-04T00:02:06.023Z,99874.80
2022-12-04T00:02:16.078Z,99876.77
2022-12-04T00:02:26.073Z,99876.65
2022-12-04T00:02:36.139Z,99874.69
2022-12-04T00:02:46.044Z,99880.84
2022-12-04T00:02:56.076Z,99878.11
2022-12-04T00:03:06.051Z,99876.38
2022-12-04T00:03:16.103Z,99876.70
2022-12-04T00:03:26.022Z,99878.33
2022-12-04T00:03:35.978Z,99875.51
2022-12-04T00:03:46.077Z,99876.38
2022-12-04T00:03:55.988Z,99877.67
2022-12-04T00:04:05.979Z,99876.73
2022-12-04T00:04:16.020Z,99876.61
2022-12-04T00:04:26.079Z,99874.13
2022-12-04T00:04:36.075Z,99877.31
2022-12-04T00:04:46.118Z,99877.76
2022-12-04T00:04:56.146Z,99875.48
2022-12-04T00:05:06.081Z,99872.92
2022-12-04T00:05:16.088Z,99875.31
2022-12-04T00:05:25.974Z,99874.66
2022-12-04T00:05:35.998Z,99874.13
2022-12-04T00:05:45.971Z,99875.16
2022-12-04T00:05:55.991Z,99871.89
2022-12-04T00:06:06.069Z,99877.39
2022-12-04T00:06:16.059Z,99878.00
2022-12-04T00:06:26.009Z,99877.52
2022-12-04T00:06:36.072Z,99880.60
2022-12-04T00:06:46.013Z,99881.50
2022-12-04T00:06:58.958Z,99876.86
2022-12-04T00:07:05.963Z,99878.16
2022-12-04T00:07:15.968Z,99877.58
2022-12-04T00:07:26.036Z,99873.97
2022-12-04T00:07:36.159Z,99875.51
2022-12-04T00:07:46.057Z,99875.62
2022-12-04T00:07:56.083Z,99875.25
2022-12-04T00:08:06.082Z,99875.14
2022-12-04T00:08:16.160Z,99873.30
2022-12-04T00:08:26.035Z,99872.44
2022-12-04T00:08:36.061Z,99875.78
2022-12-04T00:08:45.964Z,99874.31
2022-12-04T00:08:55.970Z,99874.40
2022-12-04T00:09:06.056Z,99875.74
2022-12-04T00:09:16.004Z,99876.19
2022-12-04T00:09:26.146Z,99876.02
2022-12-04T00:09:36.002Z,99879.88
2022-12-04T00:09:46.027Z,99876.84
2022-12-04T00:09:56.230Z,99873.58
2022-12-04T00:10:06.027Z,99875.69
2022-12-04T00:10:16.085Z,99871.91
2022-12-04T00:10:26.071Z,99876.18
2022-12-04T00:10:36.030Z,99877.53
2022-12-04T00:10:46.072Z,99876.39
2022-12-04T00:10:55.973Z,99876.02
2022-12-04T00:11:06.068Z,99877.48
2022-12-04T00:11:16.009Z,99879.40
2022-12-04T00:11:25.979Z,99878.70
2022-12-04T00:11:36.008Z,99877.34
2022-12-04T00:11:46.082Z,99878.81
2022-12-04T00:11:55.961Z,99877.23
2022-12-04T00:12:06.049Z,99874.84
2022-12-04T00:12:16.003Z,99874.06
2022-12-04T00:12:26.085Z,99876.41
2022-12-04T00:12:36.002Z,99875.59
2022-12-04T00:12:46.035Z,99875.27
2022-12-04T00:12:56.007Z,99878.20
2022-12-04T00:13:05.977Z,99874.14
2022-12-04T00:13:16.089Z,99876.86
2022-12-04T00:13:26.057Z,99878.29
2022-12-04T00:13:36.021Z,99877.15
2022-12-04T00:13:46.011Z,99877.95
2022-12-04T00:13:58.262Z,99877.64
2022-12-04T00:14:07.469Z,99873.44
2022-12-04T00:14:15.970Z,99876.82
2022-12-04T00:14:26.046Z,99875.68
2022-12-04T00:15:00.541Z,99876.97
2022-12-04T00:15:23.259Z,99877.96
2022-12-04T00:15:25.340Z,99877.58
2022-12-04T00:15:26.821Z,99877.42
2022-12-04T00:15:35.961Z,99874.98
2022-12-04T00:15:45.993Z,99879.09
2022-12-04T00:15:56.048Z,99875.95
2022-12-04T00:16:06.149Z,99875.52
2022-12-04T00:16:16.024Z,99879.50
2022-12-04T00:16:26.081Z,99875.52
2022-12-04T00:16:36.127Z,99873.88
2022-12-04T00:16:46.127Z,99876.33
2022-12-04T00:16:56.034Z,99875.02
2022-12-04T00:17:05.991Z,99876.50
2022-12-04T00:17:15.957Z,99877.19
2022-12-04T00:17:25.960Z,99880.12
2022-12-04T00:17:36.045Z,99878.61
2022-12-04T00:17:46.043Z,99880.48
2022-12-04T00:17:56.049Z,99874.22
2022-12-04T00:18:05.998Z,99878.53
2022-12-04T00:18:15.956Z,99873.33
2022-12-04T00:18:26.007Z,99875.97
2022-12-04T00:18:35.951Z,99877.41
2022-12-04T00:18:45.952Z,99875.59
2022-12-04T00:18:56.037Z,99871.30
2022-12-04T00:19:05.961Z,99876.79
2022-12-04T00:19:15.994Z,99879.23
2022-12-04T00:19:26.093Z,99877.64
2022-12-04T00:19:35.964Z,99878.91
2022-12-04T00:19:46.040Z,99877.48
2022-12-04T00:19:56.289Z,99876.62
2022-12-04T00:20:06.031Z,99873.38
2022-12-04T00:20:16.009Z,99877.17
2022-12-04T00:20:26.067Z,99875.66
2022-12-04T00:20:36.040Z,99871.62
2022-12-04T00:20:45.992Z,99878.91
2022-12-04T00:20:55.969Z,99874.52
2022-12-04T00:21:06.074Z,99873.38
2022-12-04T00:21:16.017Z,99873.53
2022-12-04T00:21:26.077Z,99876.14
2022-12-04T00:21:36.071Z,99875.16
2022-12-04T00:21:46.010Z,99879.80
2022-12-04T00:21:56.054Z,99874.14
2022-12-04T00:22:06.029Z,99876.01
2022-12-04T00:22:16.004Z,99878.09
2022-12-04T00:22:26.003Z,99874.70
2022-12-04T00:22:36.069Z,99876.09
2022-12-04T00:22:46.005Z,99876.47
2022-12-04T00:22:55.993Z,99875.89
2022-12-04T00:23:06.061Z,99877.03
2022-12-04T00:23:16.025Z,99876.14
2022-12-04T00:23:25.976Z,99874.62
2022-12-04T00:23:36.002Z,99873.17
2022-12-04T00:23:46.004Z,99878.05
2022-12-04T00:23:55.970Z,99872.75
2022-12-04T00:24:06.084Z,99872.27
2022-12-04T00:24:15.982Z,99871.81
2022-12-04T00:24:25.967Z,99869.33
2022-12-04T00:24:35.955Z,99873.08
2022-12-04T00:24:46.068Z,99869.98
2022-12-04T00:24:55.999Z,99872.21
2022-12-04T00:25:06.040Z,99875.47
2022-12-04T00:25:15.971Z,99876.73
2022-12-04T00:25:26.003Z,99875.86
2022-12-04T00:25:40.932Z,99876.77
2022-12-04T00:25:46.077Z,99874.66
2022-12-04T00:25:56.065Z,99875.42
2022-12-04T00:26:05.969Z,99874.45
2022-12-04T00:26:15.955Z,99880.91
2022-12-04T00:26:26.073Z,99879.90
2022-12-04T00:26:36.058Z,99875.02
2022-12-04T00:26:46.079Z,99875.83
2022-12-04T00:26:56.065Z,99879.52
2022-12-04T00:27:06.000Z,99876.31
2022-12-04T00:27:16.069Z,99879.84
2022-12-04T00:27:26.016Z,99878.98
2022-12-04T00:27:35.973Z,99880.00
2022-12-04T00:27:45.979Z,99877.89
2022-12-04T00:27:56.080Z,99873.53
2022-12-04T00:28:05.959Z,99879.88
2022-12-04T00:28:16.036Z,99875.83
2022-12-04T00:28:25.972Z,99875.34
2022-12-04T00:28:35.988Z,99878.10
2022-12-04T00:28:46.028Z,99881.69
2022-12-04T00:28:56.069Z,99880.05
2022-12-04T00:29:06.070Z,99880.47
2022-12-04T00:29:16.001Z,99881.17
2022-12-04T00:29:26.151Z,99883.57
2022-12-04T00:29:36.028Z,99879.34
2022-12-04T00:29:46.042Z,99879.38
2022-12-04T00:29:56.393Z,99880.95
2022-12-04T00:30:06.037Z,99879.86
2022-12-04T00:30:15.967Z,99880.84
2022-12-04T00:30:25.983Z,99878.84
2022-12-04T00:30:36.002Z,99878.56
2022-12-04T00:30:46.014Z,99878.93
2022-12-04T00:30:55.962Z,99882.03
2022-12-04T00:31:06.121Z,99882.77
2022-12-04T00:31:16.090Z,99879.62
2022-12-04T00:31:26.154Z,99880.23
2022-12-04T00:31:36.132Z,99882.27
2022-12-04T00:31:46.178Z,99882.93
2022-12-04T00:31:56.073Z,99883.30
2022-12-04T00:32:06.167Z,99876.47
2022-12-04T00:32:15.984Z,99878.95
2022-12-04T00:32:26.078Z,99881.31
2022-12-04T00:32:36.047Z,99880.64
2022-12-04T00:32:46.004Z,99876.30
2022-12-04T00:32:56.063Z,99880.73
2022-12-04T00:33:06.011Z,99882.44
2022-12-04T00:33:15.949Z,99879.47
2022-12-04T00:33:26.007Z,99879.30
2022-12-04T00:33:36.071Z,99878.48
2022-12-04T00:33:46.066Z,99883.01
2022-12-04T00:33:56.070Z,99883.98
2022-12-04T00:34:08.296Z,99881.05
2022-12-04T00:34:15.952Z,99879.75
2022-12-04T00:34:26.029Z,99883.21
2022-12-04T00:34:35.951Z,99882.20
2022-12-04T00:34:46.005Z,99879.95
2022-12-04T00:34:56.030Z,99883.01
2022-12-04T00:35:05.990Z,99878.98
2022-12-04T00:35:15.957Z,99876.98
2022-12-04T00:35:26.025Z,99879.27
2022-12-04T00:35:35.955Z,99882.20
2022-12-04T00:35:46.025Z,99876.98
2022-12-04T00:35:56.058Z,99875.72
2022-12-04T00:36:06.082Z,99873.73
2022-12-04T00:36:16.023Z,99877.58
2022-12-04T00:36:25.987Z,99881.29
2022-12-04T00:36:35.984Z,99880.03
2022-12-04T00:36:46.022Z,99881.03
2022-12-04T00:36:56.069Z,99877.49
2022-12-04T00:37:06.045Z,99877.77
2022-12-04T00:37:15.991Z,99877.89
2022-12-04T00:37:26.034Z,99874.95
2022-12-04T00:37:36.001Z,99875.44
2022-12-04T00:37:46.027Z,99878.66
2022-12-04T00:37:56.077Z,99881.09
2022-12-04T00:38:06.028Z,99877.67
2022-12-04T00:38:16.049Z,99876.21
2022-12-04T00:38:25.954Z,99877.84
2022-12-04T00:38:36.082Z,99878.48
2022-12-04T00:38:45.986Z,99877.95
2022-12-04T00:38:56.010Z,99879.25
2022-12-04T00:39:06.005Z,99880.19
2022-12-04T00:39:15.956Z,99877.79
2022-12-04T00:39:26.032Z,99882.43
2022-12-04T00:39:35.954Z,99879.94
2022-12-04T00:39:45.967Z,99878.56
2022-12-04T00:39:56.230Z,99881.36
2022-12-04T00:40:06.053Z,99879.28
2022-12-04T00:40:16.073Z,99877.49
2022-12-04T00:40:25.977Z,99876.80
2022-12-04T00:40:36.026Z,99879.07
2022-12-04T00:40:46.082Z,99876.16
2022-12-04T00:40:55.968Z,99879.80
2022-12-04T00:41:06.041Z,99875.94
2022-12-04T00:41:16.093Z,99879.52
2022-12-04T00:41:26.036Z,99879.97
2022-12-04T00:41:35.973Z,99879.31
2022-12-04T00:41:46.027Z,99877.67
2022-12-04T00:41:56.004Z,99877.03
2022-12-04T00:42:06.030Z,99880.89
2022-12-04T00:42:15.993Z,99882.20
2022-12-04T00:42:26.017Z,99878.98
2022-12-04T00:42:36.034Z,99878.98
2022-12-04T00:42:46.076Z,99881.17
2022-12-04T00:42:56.071Z,99880.08
2022-12-04T00:43:05.955Z,99876.98
2022-12-04T00:43:16.062Z,99876.50
2022-12-04T00:43:26.020Z,99878.94
2022-12-04T00:43:35.995Z,99879.42
2022-12-04T00:43:45.993Z,99878.73
2022-12-04T00:43:56.031Z,99880.53
2022-12-04T00:44:06.011Z,99876.94
2022-12-04T00:44:15.972Z,99879.10
2022-12-04T00:44:26.063Z,99880.80
2022-12-04T00:44:35.976Z,99880.35
2022-12-04T00:44:45.969Z,99879.70
2022-12-04T00:44:56.003Z,99877.83
2022-12-04T00:45:06.055Z,99879.45
2022-12-04T00:45:16.035Z,99876.64
2022-12-04T00:45:26.190Z,99874.81
2022-12-04T00:45:36.009Z,99879.95
2022-12-04T00:45:46.007Z,99881.08
2022-12-04T00:45:56.012Z,99877.76
2022-12-04T00:46:06.073Z,99878.23
2022-12-04T00:46:16.133Z,99874.81
2022-12-04T00:46:26.095Z,99879.21
2022-12-04T00:46:36.003Z,99877.67
2022-12-04T00:46:45.993Z,99876.94
2022-12-04T00:46:55.951Z,99880.44
2022-12-04T00:47:05.969Z,99881.09
2022-12-04T00:47:16.043Z,99882.22
2022-12-04T00:47:26.022Z,99878.36
2022-12-04T00:47:36.100Z,99876.98
2022-12-04T00:47:45.983Z,99881.22
2022-12-04T00:47:56.054Z,99880.41
2022-12-04T00:48:05.960Z,99877.34
2022-12-04T00:48:15.967Z,99877.84
2022-12-04T00:48:26.024Z,99880.98
2022-12-04T00:48:36.045Z,99875.66
2022-12-04T00:48:45.985Z,99877.84
2022-12-04T00:48:55.987Z,99880.12
2022-12-04T00:49:05.984Z,99885.49
2022-12-04T00:49:15.986Z,99882.08
2022-12-04T00:49:25.985Z,99881.26
2022-12-04T00:49:35.972Z,99885.06
2022-12-04T00:49:45.965Z,99879.88
2022-12-04T00:49:56.363Z,99879.92
2022-12-04T00:50:05.989Z,99875.49
2022-12-04T00:50:15.958Z,99882.08
2022-12-04T00:50:25.967Z,99882.03
2022-12-04T00:50:36.002Z,99880.52
2022-12-04T00:50:46.015Z,99878.08
2022-12-04T00:50:56.044Z,99880.36
2022-12-04T00:51:05.964Z,99879.42
2022-12-04T00:51:16.026Z,99872.95
2022-12-04T00:51:25.983Z,99879.59
2022-12-04T00:51:36.771Z,99879.38
2022-12-04T00:51:45.992Z,99876.61
2022-12-04T00:51:56.040Z,99879.21
2022-12-04T00:52:05.984Z,99875.35
2022-12-04T00:52:16.044Z,99877.91
2022-12-04T00:52:26.025Z,99878.61
2022-12-04T00:52:36.020Z,99879.92
2022-12-04T00:52:46.087Z,99878.70
2022-12-04T00:52:56.041Z,99878.92
2022-12-04T00:53:06.060Z,99876.23
2022-12-04T00:53:16.064Z,99877.87
2022-12-04T00:53:26.049Z,99874.91
2022-12-04T00:53:36.043Z,99879.95
2022-12-04T00:53:45.955Z,99876.09
2022-12-04T00:53:56.076Z,99875.28
2022-12-04T00:54:06.002Z,99878.00
2022-12-04T00:54:15.984Z,99876.42
2022-12-04T00:54:25.988Z,99879.19
2022-12-04T00:54:36.008Z,99876.91
2022-12-04T00:54:46.042Z,99879.14
2022-12-04T00:54:55.955Z,99875.19
2022-12-04T00:55:06.005Z,99878.60
2022-12-04T00:55:15.979Z,99878.12
2022-12-04T00:55:27.202Z,99873.06
2022-12-04T00:55:35.961Z,99874.22
2022-12-04T00:55:46.032Z,99877.22
2022-12-04T00:55:56.060Z,99877.38
2022-12-04T00:56:05.993Z,99876.33
2022-12-04T00:56:18.480Z,99877.82
2022-12-04T00:56:26.063Z,99873.39
2022-12-04T00:56:36.060Z,99878.52
2022-12-04T00:56:45.979Z,99873.67
2022-12-04T00:56:56.080Z,99876.03
2022-12-04T00:57:06.005Z,99872.33
2022-12-04T00:57:15.963Z,99873.47
2022-12-04T00:57:26.048Z,99873.80
2022-12-04T00:57:36.015Z,99868.59
2022-12-04T00:57:46.071Z,99873.15
2022-12-04T00:57:59.901Z,99868.41
2022-12-04T00:58:05.965Z,99871.80
2022-12-04T00:58:15.984Z,99871.30
2022-12-04T00:58:26.057Z,99872.94
2022-12-04T00:58:36.077Z,99870.69
2022-12-04T00:58:45.985Z,99868.34
2022-12-04T00:58:55.969Z,99869.38
2022-12-04T00:59:06.038Z,99869.33
2022-12-04T00:59:16.021Z,99867.91
2022-12-04T00:59:25.983Z,99873.72
2022-12-04T00:59:36.021Z,99866.97
2022-12-04T00:59:46.009Z,99872.47
2022-12-04T00:59:56.261Z,99871.33
2022-12-04T01:00:05.989Z,99867.80
2022-12-04T01:00:15.982Z,99868.68
2022-12-04T01:00:26.000Z,99871.45
2022-12-04T01:00:35.993Z,99869.58
2022-12-04T01:00:46.129Z,99864.65
2022-12-04T01:00:56.070Z,99868.27
2022-12-04T01:01:06.090Z,99867.53
2022-12-04T01:01:16.044Z,99868.68
2022-12-04T01:01:26.205Z,99870.30
2022-12-04T01:01:36.066Z,99863.95
2022-12-04T01:01:46.065Z,99867.61
2022-12-04T01:01:56.039Z,99863.16
2022-12-04T01:02:06.049Z,99868.34
2022-12-04T01:02:15.996Z,99866.53
2022-12-04T01:02:25.965Z,99864.09
2022-12-04T01:02:36.126Z,99866.77
2022-12-04T01:02:46.088Z,99863.36
2022-12-04T01:02:56.090Z,99867.74
2022-12-04T01:03:06.081Z,99865.52
2022-12-04T01:03:16.094Z,99865.63
2022-12-04T01:03:26.128Z,99866.45
2022-12-04T01:03:36.096Z,99866.60
2022-12-04T01:03:45.974Z,99867.70
2022-12-04T01:03:56.029Z,99864.97
2022-12-04T01:04:05.990Z,99868.36
2022-12-04T01:04:15.966Z,99867.34
2022-12-04T01:04:25.976Z,99865.09
2022-12-04T01:04:35.965Z,99866.56
2022-12-04T01:04:45.999Z,99867.00
2022-12-04T01:04:55.965Z,99867.01
2022-12-04T01:05:06.090Z,99863.80
2022-12-04T01:05:16.014Z,99865.38
2022-12-04T01:05:26.036Z,99867.66
2022-12-04T01:05:36.048Z,99868.14
2022-12-04T01:05:46.066Z,99867.70
2022-12-04T01:05:56.047Z,99870.05
2022-12-04T01:06:05.963Z,99867.65
2022-12-04T01:06:15.990Z,99864.19
2022-12-04T01:06:26.082Z,99866.27
2022-12-04T01:06:36.033Z,99864.19
2022-12-04T01:06:46.083Z,99869.36
2022-12-04T01:06:58.034Z,99867.23
2022-12-04T01:07:06.020Z,99868.71
2022-12-04T01:07:16.067Z,99867.89
2022-12-04T01:07:26.169Z,99863.98
2022-12-04T01:07:36.128Z,99865.44
2022-12-04T01:07:46.174Z,99868.98
2022-12-04T01:07:56.011Z,99867.68
2022-12-04T01:08:06.220Z,99868.00
2022-12-04T01:08:16.086Z,99867.62
2022-12-04T01:08:26.056Z,99866.98
2022-12-04T01:08:35.957Z,99865.03
2022-12-04T01:08:45.958Z,99866.70
2022-12-04T01:08:55.963Z,99867.68
2022-12-04T01:09:05.954Z,99865.52
2022-12-04T01:09:16.080Z,99863.28
2022-12-04T01:09:25.989Z,99863.16
2022-12-04T01:09:36.067Z,99862.84
2022-12-04T01:09:45.966Z,99864.14
2022-12-04T01:09:56.357Z,99864.88
2022-12-04T01:10:06.002Z,99868.36
2022-12-04T01:10:15.969Z,99865.55
2022-12-04T01:10:26.092Z,99866.52
2022-12-04T01:10:35.998Z,99865.30
2022-12-04T01:10:46.044Z,99867.22
2022-12-04T01:10:56.042Z,99869.66
2022-12-04T01:11:06.056Z,99866.45
2022-12-04T01:11:16.048Z,99871.33
2022-12-04T01:11:26.008Z,99867.70
2022-12-04T01:11:36.050Z,99870.14
2022-12-04T01:11:46.021Z,99864.56
2022-12-04T01:11:56.019Z,99868.14
2022-12-04T01:12:06.006Z,99864.56
2022-12-04T01:12:20.533Z,99864.23
2022-12-04T01:12:26.071Z,99861.13
2022-12-04T01:12:35.984Z,99867.28
2022-12-04T01:12:46.051Z,99865.94
2022-12-04T01:12:56.031Z,99867.72
2022-12-04T01:13:05.980Z,99867.14
2022-12-04T01:13:15.998Z,99864.88
2022-12-04T01:13:26.017Z,99867.30
2022-12-04T01:13:36.067Z,99863.24
2022-12-04T01:13:45.966Z,99866.33
2022-12-04T01:13:55.993Z,99869.83
2022-12-04T01:14:06.008Z,99864.33
2022-12-04T01:14:15.970Z,99860.62
2022-12-04T01:14:26.084Z,99864.98
2022-12-04T01:14:36.004Z,99866.89
2022-12-04T01:14:45.981Z,99865.10
2022-12-04T01:14:56.067Z,99862.74
2022-12-04T01:15:06.039Z,99862.05
2022-12-04T01:15:16.030Z,99864.98
2022-12-04T01:15:26.027Z,99866.16
2022-12-04T01:15:35.979Z,99860.58
2022-12-04T01:15:46.024Z,99862.58
2022-12-04T01:15:56.057Z,99865.52
2022-12-04T01:16:05.994Z,99863.62
2022-12-04T01:16:16.072Z,99866.24
2022-12-04T01:16:26.098Z,99863.64
2022-12-04T01:16:36.148Z,99869.61
2022-12-04T01:16:46.113Z,99869.66
2022-12-04T01:16:56.116Z,99863.03
2022-12-04T01:17:06.036Z,99867.06
2022-12-04T01:17:15.988Z,99869.16
2022-12-04T01:17:26.087Z,99866.69
2022-12-04T01:17:36.057Z,99868.64
2022-12-04T01:17:45.963Z,99867.78
2022-12-04T01:17:56.082Z,99868.96
2022-12-04T01:18:06.058Z,99866.79
2022-12-04T01:18:15.978Z,99866.52
2022-12-04T01:18:25.978Z,99873.63
2022-12-04T01:18:35.975Z,99870.55
2022-12-04T01:18:46.006Z,99870.34
2022-12-04T01:18:56.000Z,99869.97
2022-12-04T01:19:05.974Z,99869.31
2022-12-04T01:19:16.019Z,99869.52
2022-12-04T01:19:25.964Z,99868.83
2022-12-04T01:19:36.007Z,99866.30
2022-12-04T01:19:45.990Z,99871.09
2022-12-04T01:19:56.218Z,99869.68
2022-12-04T01:20:06.006Z,99868.14
2022-12-04T01:20:16.049Z,99872.09
2022-12-04T01:20:25.964Z,99869.66
2022-12-04T01:20:36.042Z,99874.75
2022-12-04T01:20:46.059Z,99876.34
2022-12-04T01:20:56.051Z,99873.98
2022-12-04T01:21:05.958Z,99869.47
2022-12-04T01:21:16.023Z,99870.28
2022-12-04T01:21:26.077Z,99876.42
2022-12-04T01:21:36.015Z,99874.07
2022-12-04T01:21:45.973Z,99873.88
2022-12-04T01:21:55.990Z,99874.69
2022-12-04T01:22:06.023Z,99872.78
2022-12-04T01:22:16.068Z,99872.28
2022-12-04T01:22:25.988Z,99871.31
2022-12-04T01:22:36.069Z,99874.19
2022-12-04T01:22:45.986Z,99873.43
2022-12-04T01:22:56.090Z,99872.38
2022-12-04T01:23:06.016Z,99878.23
2022-12-04T01:23:16.037Z,99872.70
2022-12-04T01:23:26.072Z,99867.05
2022-12-04T01:23:36.072Z,99870.02
2022-12-04T01:23:45.989Z,99870.19
2022-12-04T01:23:56.007Z,99869.47
2022-12-04T01:24:06.003Z,99867.34
2022-12-04T01:24:16.094Z,99865.45
2022-12-04T01:24:26.021Z,99870.28
2022-12-04T01:24:35.972Z,99869.95
2022-12-04T01:24:46.043Z,99870.92
2022-12-04T01:24:55.964Z,99865.40
2022-12-04T01:25:06.059Z,99868.98
2022-12-04T01:25:15.992Z,99868.33
2022-12-04T01:25:26.036Z,99870.19
2022-12-04T01:25:35.977Z,99870.07
2022-12-04T01:25:46.026Z,99869.26
2022-12-04T01:25:56.058Z,99864.14
2022-12-04T01:26:06.072Z,99870.49
2022-12-04T01:26:16.017Z,99868.05
2022-12-04T01:26:25.955Z,99867.94
2022-12-04T01:26:36.002Z,99869.08
2022-12-04T01:26:46.043Z,99864.59
2022-12-04T01:26:55.985Z,99866.23
2022-12-04T01:27:05.998Z,99870.14
2022-12-04T01:27:15.992Z,99867.78
2022-12-04T01:27:26.015Z,99866.61
2022-12-04T01:27:36.007Z,99868.27
2022-12-04T01:27:45.960Z,99870.84
2022-12-04T01:27:56.085Z,99867.02
2022-12-04T01:28:05.969Z,99865.02
2022-12-04T01:28:16.028Z,99867.13
2022-12-04T01:28:26.006Z,99863.23
2022-12-04T01:28:36.068Z,99864.70
2022-12-04T01:28:46.070Z,99865.47
2022-12-04T01:28:56.020Z,99863.67
2022-12-04T01:29:05.960Z,99861.84
2022-12-04T01:29:16.070Z,99867.33
2022-12-04T01:29:26.025Z,99866.06
2022-12-04T01:29:36.054Z,99864.52
2022-12-04T01:29:45.954Z,99865.17
2022-12-04T01:29:56.642Z,99866.26
2022-12-04T01:30:06.051Z,99862.19
2022-12-04T01:30:16.020Z,99861.70
2022-12-04T01:30:26.048Z,99868.70
2022-12-04T01:30:35.981Z,99863.22
2022-12-04T01:30:45.954Z,99864.14
2022-12-04T01:30:56.041Z,99861.05
2022-12-04T01:31:06.071Z,99857.30
2022-12-04T01:31:16.013Z,99861.38
2022-12-04T01:31:26.133Z,99855.89
2022-12-04T01:31:36.116Z,99858.28
2022-12-04T01:31:46.102Z,99856.97
2022-12-04T01:31:56.077Z,99858.19
2022-12-04T01:32:06.094Z,99861.81
2022-12-04T01:32:16.102Z,99855.62
2022-12-04T01:32:26.063Z,99855.78
2022-12-04T01:32:35.954Z,99857.74
2022-12-04T01:32:46.059Z,99857.58
2022-12-04T01:32:56.103Z,99852.53
2022-12-04T01:33:05.960Z,99852.70
2022-12-04T01:33:16.038Z,99856.27
2022-12-04T01:33:26.084Z,99857.62
2022-12-04T01:33:35.991Z,99853.83
2022-12-04T01:33:46.016Z,99857.42
2022-12-04T01:33:56.005Z,99855.95
2022-12-04T01:34:06.070Z,99855.58
2022-12-04T01:34:15.980Z,99855.54
2022-12-04T01:34:26.009Z,99852.77
2022-12-04T01:34:36.080Z,99857.00
2022-12-04T01:34:46.095Z,99855.48
2022-12-04T01:34:56.052Z,99853.05
2022-12-04T01:35:06.050Z,99855.48
2022-12-04T01:35:16.071Z,99856.42
2022-12-04T01:35:26.069Z,99856.09
2022-12-04T01:35:36.059Z,99856.95
2022-12-04T01:35:45.990Z,99856.34
2022-12-04T01:35:56.034Z,99855.00
2022-12-04T01:36:05.992Z,99856.19
2022-12-04T01:36:16.016Z,99859.77
2022-12-04T01:36:26.061Z,99858.84
2022-12-04T01:36:36.048Z,99851.44
2022-12-04T01:36:46.035Z,99855.75
2022-12-04T01:36:56.041Z,99855.62
2022-12-04T01:37:06.054Z,99857.53
2022-12-04T01:37:16.080Z,99857.33
2022-12-04T01:37:26.048Z,99856.35
2022-12-04T01:37:35.971Z,99855.95
2022-12-04T01:37:45.965Z,99853.42
2022-12-04T01:37:56.041Z,99854.80
2022-12-04T01:38:06.040Z,99850.25
2022-12-04T01:38:16.032Z,99854.07
2022-12-04T01:38:25.965Z,99856.18
2022-12-04T01:38:35.976Z,99850.32
2022-12-04T01:38:45.958Z,99857.73
2022-12-04T01:38:56.051Z,99855.05
2022-12-04T01:39:05.997Z,99853.31
2022-12-04T01:39:16.056Z,99855.81
2022-12-04T01:39:26.017Z,99857.23
2022-12-04T01:39:36.076Z,99854.34
2022-12-04T01:39:46.028Z,99852.83
2022-12-04T01:39:56.300Z,99858.91
2022-12-04T01:40:06.023Z,99849.92
2022-12-04T01:40:15.957Z,99852.11
2022-12-04T01:40:26.041Z,99855.21
2022-12-04T01:40:35.993Z,99851.80
2022-12-04T01:40:46.060Z,99854.84
2022-12-04T01:40:56.053Z,99853.58
2022-12-04T01:41:06.061Z,99852.55
2022-12-04T01:41:15.964Z,99853.00
2022-12-04T01:41:26.143Z,99852.67
2022-12-04T01:41:36.000Z,99850.72
2022-12-04T01:41:46.084Z,99848.56
2022-12-04T01:41:56.044Z,99851.98
2022-12-04T01:42:06.059Z,99846.72
2022-12-04T01:42:16.013Z,99846.39
2022-12-04T01:42:26.044Z,99849.64
2022-12-04T01:42:36.026Z,99848.91
2022-12-04T01:42:46.072Z,99850.91
2022-12-04T01:42:56.059Z,99852.81
2022-12-04T01:43:06.039Z,99855.38
2022-12-04T01:43:16.054Z,99852.61
2022-12-04T01:43:25.990Z,99849.34
2022-12-04T01:43:36.044Z,99851.02
2022-12-04T01:43:46.007Z,99851.09
2022-12-04T01:43:55.981Z,99852.40
2022-12-04T01:44:06.091Z,99850.33
2022-12-04T01:44:16.046Z,99852.55
2022-12-04T01:44:26.000Z,99853.16
2022-12-04T01:44:35.973Z,99852.39
2022-12-04T01:44:45.980Z,99856.91
2022-12-04T01:44:56.036Z,99851.86
2022-12-04T01:45:06.069Z,99851.58
2022-12-04T01:45:16.017Z,99855.12
2022-12-04T01:45:26.057Z,99855.73
2022-12-04T01:45:36.096Z,99853.94
2022-12-04T01:45:46.001Z,99852.02
2022-12-04T01:45:56.135Z,99854.20
2022-12-04T01:46:06.062Z,99851.00
2022-12-04T01:46:16.121Z,99846.27
2022-12-04T01:46:26.129Z,99852.42
2022-12-04T01:46:35.998Z,99849.45
2022-12-04T01:46:45.964Z,99851.08
2022-12-04T01:46:56.126Z,99847.17
2022-12-04T01:47:05.992Z,99853.30
2022-12-04T01:47:15.995Z,99847.33
2022-12-04T01:47:26.068Z,99850.90
2022-12-04T01:47:35.974Z,99847.81
2022-12-04T01:47:45.999Z,99851.06
2022-12-04T01:47:55.986Z,99849.56
2022-12-04T01:48:06.039Z,99852.16
2022-12-04T01:48:15.975Z,99848.09
2022-12-04T01:48:25.955Z,99848.70
2022-12-04T01:48:36.021Z,99851.67
2022-12-04T01:48:45.958Z,99847.11
2022-12-04T01:48:55.978Z,99848.04
2022-12-04T01:49:06.067Z,99849.03
2022-12-04T01:49:16.000Z,99847.78
2022-12-04T01:49:26.037Z,99844.62
2022-12-04T01:49:36.004Z,99841.41
2022-12-04T01:49:46.025Z,99848.31
2022-12-04T01:49:56.395Z,99851.16
2022-12-04T01:50:06.020Z,99848.64
2022-12-04T01:50:16.072Z,99844.83
2022-12-04T01:50:26.031Z,99846.02
2022-12-04T01:50:36.036Z,99848.66
2022-12-04T01:50:46.097Z,99847.21
2022-12-04T01:50:56.075Z,99846.44
2022-12-04T01:51:05.979Z,99844.69
2022-12-04T01:51:16.019Z,99846.37
2022-12-04T01:51:26.080Z,99845.98
2022-12-04T01:51:35.973Z,99843.11
2022-12-04T01:51:46.100Z,99842.46
2022-12-04T01:51:55.958Z,99843.40
2022-12-04T01:52:06.084Z,99842.41
2022-12-04T01:52:16.031Z,99845.91
2022-12-04T01:52:25.972Z,99842.66
2022-12-04T01:52:36.042Z,99842.16
2022-12-04T01:52:46.056Z,99841.23
2022-12-04T01:52:55.966Z,99845.30
2022-12-04T01:53:05.997Z,99842.48
2022-12-04T01:53:15.958Z,99843.30
2022-12-04T01:53:26.043Z,99845.13
2022-12-04T01:53:35.992Z,99844.69
2022-12-04T01:53:46.005Z,99838.30
2022-12-04T01:53:55.959Z,99839.64
2022-12-04T01:54:05.987Z,99845.75
2022-12-04T01:54:16.057Z,99841.52
2022-12-04T01:54:26.001Z,99842.98
2022-12-04T01:54:36.042Z,99843.30
2022-12-04T01:54:46.050Z,99843.19
2022-12-04T01:54:56.014Z,99844.76
2022-12-04T01:55:06.012Z,99842.59
2022-12-04T01:55:16.027Z,99843.73
2022-12-04T01:55:26.049Z,99841.50
2022-12-04T01:55:35.986Z,99843.30
2022-12-04T01:55:46.022Z,99841.50
2022-12-04T01:55:56.069Z,99841.34
2022-12-04T01:56:06.052Z,99837.59
2022-12-04T01:56:15.971Z,99840.84
2022-12-04T01:56:26.041Z,99838.42
2022-12-04T01:56:36.077Z,99838.25
2022-12-04T01:56:46.082Z,99839.02
2022-12-04T01:56:55.990Z,99838.47
2022-12-04T01:57:05.961Z,99837.95
2022-12-04T01:57:16.012Z,99834.86
2022-12-04T01:57:26.043Z,99839.86
2022-12-04T01:57:35.969Z,99834.00
2022-12-04T01:57:45.997Z,99836.64